This is the latest recevied weather packets stored in our database for station/object SP2MHC-2. If no packets are shown the sender has not sent any weather packets the latest 10 day(s).
| Time | Temp. | Humidity | Pressure | Rain* | Wind** | Luminosity | Snow |
|---|---|---|---|---|---|---|---|
| 1777776301 | 13.33° C | 46% | 1011.7 hPa | - | - | - | - |
| 1777776300 | 13.33° C | 46% | 1011.7 hPa | - | - | - | - |
| 1777775401 | 13.33° C | 47% | 1011.8 hPa | - | - | - | - |
| 1777775400 | 13.33° C | 47% | 1011.8 hPa | - | - | - | - |
| 1777774500 | 13.33° C | 47% | 1012 hPa | - | - | - | - |
| 1777772699 | 13.89° C | 47% | 1012 hPa | - | - | - | - |
| 1777760997 | 13.89° C | 44% | 1013.1 hPa | - | - | - | - |
| 1777760997 | 13.89° C | 44% | 1013.1 hPa | - | - | - | - |
| 1777760097 | 13.89° C | 44% | 1013.1 hPa | - | - | - | - |
| 1777760097 | 13.89° C | 44% | 1013.1 hPa | - | - | - | - |
| 1777758296 | 15° C | 42% | 1013.1 hPa | - | - | - | - |
| 1777757397 | 13.33° C | 44% | 1013.3 hPa | - | - | - | - |
| 1777757396 | 13.33° C | 44% | 1013.3 hPa | - | - | - | - |
| 1777756497 | 10° C | 48% | 1013.3 hPa | - | - | - | - |
| 1777756496 | 10° C | 48% | 1013.3 hPa | - | - | - | - |
| 1777755596 | 8.89° C | 49% | 1013.4 hPa | - | - | - | - |
| 1777755596 | 8.89° C | 49% | 1013.4 hPa | - | - | - | - |
| 1777753796 | 10° C | 45% | 1013.5 hPa | - | - | - | - |
| 1777753795 | 10° C | 45% | 1013.5 hPa | - | - | - | - |
| 1777752896 | 10° C | 46% | 1013.7 hPa | - | - | - | - |
| 1777752895 | 10° C | 46% | 1013.7 hPa | - | - | - | - |
| 1777751996 | 9.44° C | 46% | 1013.7 hPa | - | - | - | - |
| 1777751995 | 9.44° C | 46% | 1013.7 hPa | - | - | - | - |
| 1777751096 | 9.44° C | 46% | 1013.8 hPa | - | - | - | - |
| 1777751095 | 9.44° C | 46% | 1013.8 hPa | - | - | - | - |
* Rain since midnight (hover to see other rain measurements)
** Current wind speed in m/s (hover to see current wind gust speed)